Time;durP1;ratioP1;P1;durP2;ratioP2;P2;SDS_P1;SDS_P2;PMS_P1;PMS_P2;Temp;Humidity;BMP_temperature;BMP_pressure;BME280_temperature;BME280_humidity;BME280_pressure;Samples;Min_cycle;Max_cycle;Signal;HPM_P1;HPM_P2
2020/12/03 00:00:24;;;;;;;15.88;7.00;;;;;;;;;;5033229;28;20045;-81
2020/12/03 00:02:50;;;;;;;14.55;7.20;;;;;;;;;;5033820;28;20061;-81
2020/12/03 00:05:16;;;;;;;17.23;7.57;;;;;;;;;;5033754;28;20030;-81
2020/12/03 00:07:43;;;;;;;15.00;7.80;;;;;;;;;;5034951;28;20076;-81
2020/12/03 00:10:09;;;;;;;12.30;6.85;;;;;;;;;;5033508;28;20443;-81
2020/12/03 00:12:35;;;;;;;16.60;7.50;;;;;;;;;;5033541;28;20115;-81
2020/12/03 00:15:01;;;;;;;11.82;6.75;;;;;;;;;;5033371;28;20021;-81
2020/12/03 00:17:27;;;;;;;16.08;7.70;;;;;;;;;;5033485;28;20069;-81
2020/12/03 00:19:53;;;;;;;16.17;7.38;;;;;;;;;;5034433;28;20097;-81
2020/12/03 00:22:19;;;;;;;13.18;7.32;;;;;;;;;;5034589;28;20495;-81
2020/12/03 00:24:45;;;;;;;11.23;6.28;;;;;;;;;;5034722;28;20026;-81
2020/12/03 00:27:13;;;;;;;12.63;6.70;;;;;;;;;;5034503;28;20026;-81
2020/12/03 00:29:39;;;;;;;15.00;7.82;;;;;;;;;;5034515;28;20117;-81
2020/12/03 00:32:05;;;;;;;13.60;6.65;;;;;;;;;;5034641;28;20480;-81
2020/12/03 00:34:31;;;;;;;;;;;;;;;;;;5034918;28;20538;-81
2020/12/03 00:36:57;;;;;;;13.25;7.80;;;;;;;;;;5034344;28;19913;-82
2020/12/03 00:39:24;;;;;;;15.63;7.97;;;;;;;;;;5032780;28;20022;-81
2020/12/03 00:41:52;;;;;;;12.25;7.20;;;;;;;;;;5034194;28;20035;-81
2020/12/03 00:44:18;;;;;;;16.00;8.70;;;;;;;;;;5034518;28;20032;-81
2020/12/03 00:46:45;;;;;;;14.93;7.50;;;;;;;;;;5034142;28;20476;-82
2020/12/03 00:49:11;;;;;;;14.68;8.32;;;;;;;;;;5032931;28;20021;-81
2020/12/03 00:51:37;;;;;;;15.10;7.38;;;;;;;;;;5034010;28;20057;-81
2020/12/03 00:54:03;;;;;;;14.98;7.22;;;;;;;;;;5033073;28;20056;-81
2020/12/03 00:56:29;;;;;;;12.98;8.00;;;;;;;;;;5033902;28;20032;-81
2020/12/03 00:58:55;;;;;;;15.45;7.45;;;;;;;;;;5033860;28;20030;-81
2020/12/03 01:01:21;;;;;;;14.52;8.45;;;;;;;;;;5032384;28;20045;-81
2020/12/03 01:03:47;;;;;;;;;;;;;;;;;;5034316;28;20029;-81
2020/12/03 01:06:13;;;;;;;14.52;7.03;;;;;;;;;;5034005;28;19907;-81
2020/12/03 01:08:39;;;;;;;11.98;7.35;;;;;;;;;;5033712;28;20087;-81
2020/12/03 01:11:05;;;;;;;14.05;6.57;;;;;;;;;;5033755;28;20026;-81
2020/12/03 01:13:32;;;;;;;13.10;6.80;;;;;;;;;;5033939;28;20084;-81
2020/12/03 01:15:58;;;;;;;11.95;6.97;;;;;;;;;;5033823;28;20037;-81
2020/12/03 01:18:24;;;;;;;11.07;6.78;;;;;;;;;;5033770;28;20036;-81
2020/12/03 01:20:50;;;;;;;19.02;9.35;;;;;;;;;;5032206;28;20480;-81
2020/12/03 01:23:17;;;;;;;16.98;9.13;;;;;;;;;;5032241;28;20380;-81
2020/12/03 01:25:43;;;;;;;14.38;6.97;;;;;;;;;;5033698;28;20021;-81
2020/12/03 01:28:09;;;;;;;12.27;6.90;;;;;;;;;;5033601;28;20036;-81
2020/12/03 01:30:35;;;;;;;12.27;6.38;;;;;;;;;;5033401;28;20376;-81
2020/12/03 01:33:01;;;;;;;;;;;;;;;;;;5034063;28;20031;-81
2020/12/03 01:35:27;;;;;;;10.98;5.78;;;;;;;;;;5033576;28;19905;-81
2020/12/03 01:37:53;;;;;;;12.55;6.18;;;;;;;;;;5033317;28;20544;-81
2020/12/03 01:40:21;;;;;;;12.00;6.93;;;;;;;;;;5033281;28;20025;-81
2020/12/03 01:42:47;;;;;;;15.23;8.23;;;;;;;;;;5033189;28;20032;-81
2020/12/03 01:45:32;;;;;;;12.55;6.80;;;;;;;;;;5033517;28;20033;-81
2020/12/03 01:47:58;;;;;;;15.43;7.00;;;;;;;;;;5033472;28;20108;-80
2020/12/03 01:50:24;;;;;;;11.52;6.20;;;;;;;;;;5032023;28;20029;-81
2020/12/03 01:52:50;;;;;;;10.90;6.55;;;;;;;;;;5033286;28;20034;-81
2020/12/03 01:55:16;;;;;;;12.15;6.88;;;;;;;;;;5033269;28;20029;-81
2020/12/03 01:57:48;;;;;;;10.40;5.85;;;;;;;;;;5033313;28;20029;-81
2020/12/03 02:00:15;;;;;;;11.05;7.50;;;;;;;;;;5032655;28;20046;-81
2020/12/03 02:02:46;;;;;;;10.02;5.80;;;;;;;;;;5033316;28;20057;-81
2020/12/03 02:05:23;;;;;;;11.30;6.38;;;;;;;;;;5034725;28;20021;-81
2020/12/03 02:07:49;;;;;;;9.10;6.20;;;;;;;;;;5037314;28;20079;-81
2020/12/03 02:10:16;;;;;;;14.95;6.43;;;;;;;;;;5037199;28;20072;-81
2020/12/03 02:12:42;;;;;;;10.68;6.82;;;;;;;;;;5037359;28;20460;-81
2020/12/03 02:15:08;;;;;;;;;;;;;;;;;;5036124;28;20048;-81
2020/12/03 02:17:34;;;;;;;10.98;5.93;;;;;;;;;;5035604;28;20356;-81
2020/12/03 02:20:02;;;;;;;10.40;6.43;;;;;;;;;;5036740;28;20027;-81
2020/12/03 02:22:28;;;;;;;10.77;6.63;;;;;;;;;;5035506;28;20170;-81
2020/12/03 02:24:54;;;;;;;10.27;6.55;;;;;;;;;;5035898;28;20138;-81
2020/12/03 02:27:21;;;;;;;11.00;6.18;;;;;;;;;;5036803;28;20087;-81
2020/12/03 02:29:47;;;;;;;12.85;6.95;;;;;;;;;;5036539;28;20027;-81
2020/12/03 02:32:13;;;;;;;12.18;6.10;;;;;;;;;;5035494;28;20109;-80
2020/12/03 02:34:39;;;;;;;9.00;6.03;;;;;;;;;;5036874;28;20435;-81
2020/12/03 02:37:06;;;;;;;10.23;6.05;;;;;;;;;;5036600;28;20480;-80
2020/12/03 02:39:33;;;;;;;10.98;6.38;;;;;;;;;;5036398;28;20075;-81
2020/12/03 02:42:00;;;;;;;11.18;6.05;;;;;;;;;;5036533;28;20476;-80
2020/12/03 02:44:27;;;;;;;8.60;5.53;;;;;;;;;;5036433;28;20476;-81
2020/12/03 02:46:52;;;;;;;;;;;;;;;;;;5036866;28;20021;-81
2020/12/03 02:49:19;;;;;;;9.23;5.57;;;;;;;;;;5036464;28;19996;-81
2020/12/03 02:51:45;;;;;;;9.48;5.88;;;;;;;;;;5036514;28;20057;-81
2020/12/03 02:54:11;;;;;;;11.15;5.57;;;;;;;;;;5036423;28;20032;-81
2020/12/03 02:56:38;;;;;;;9.48;5.20;;;;;;;;;;5036252;28;20372;-81
2020/12/03 02:59:05;;;;;;;8.95;5.57;;;;;;;;;;5036116;28;20026;-81
2020/12/03 03:01:31;;;;;;;8.23;3.55;;;;;;;;;;5036001;28;20080;-81
2020/12/03 03:03:58;;;;;;;8.48;3.60;;;;;;;;;;5036309;28;20025;-81
2020/12/03 03:06:24;;;;;;;5.38;3.72;;;;;;;;;;5036210;28;20469;-81
2020/12/03 03:08:50;;;;;;;4.95;3.53;;;;;;;;;;5036228;28;20036;-81
2020/12/03 03:11:16;;;;;;;5.43;3.85;;;;;;;;;;5035850;28;20014;-81
2020/12/03 03:13:42;;;;;;;7.25;4.53;;;;;;;;;;5036084;28;20030;-81
2020/12/03 03:16:08;;;;;;;4.55;3.00;;;;;;;;;;5034927;28;20025;-80
2020/12/03 03:18:34;;;;;;;5.57;3.67;;;;;;;;;;5034350;28;20567;-81
2020/12/03 03:21:00;;;;;;;5.97;3.72;;;;;;;;;;5035651;28;20017;-81
2020/12/03 03:23:26;;;;;;;5.72;3.92;;;;;;;;;;5035890;28;20061;-81
2020/12/03 03:25:52;;;;;;;6.75;4.15;;;;;;;;;;5035619;28;20018;-80
2020/12/03 03:28:18;;;;;;;8.52;3.55;;;;;;;;;;5034300;28;20370;-80
2020/12/03 03:30:44;;;;;;;6.32;3.90;;;;;;;;;;5035648;28;20079;-81
2020/12/03 03:33:10;;;;;;;8.15;4.40;;;;;;;;;;5035632;28;20116;-80
2020/12/03 03:35:36;;;;;;;5.22;3.38;;;;;;;;;;5035573;28;20103;-81
2020/12/03 03:38:02;;;;;;;5.18;3.33;;;;;;;;;;5035448;28;20080;-81
2020/12/03 03:40:28;;;;;;;7.10;3.53;;;;;;;;;;5035359;28;20060;-81
2020/12/03 03:42:55;;;;;;;5.50;3.70;;;;;;;;;;5035280;28;20134;-81
2020/12/03 03:45:21;;;;;;;4.88;2.97;;;;;;;;;;5035379;28;20025;-81
2020/12/03 03:47:47;;;;;;;5.50;3.33;;;;;;;;;;5035411;28;20025;-81
2020/12/03 03:50:13;;;;;;;6.57;3.47;;;;;;;;;;5035190;28;20132;-81
2020/12/03 03:52:39;;;;;;;;;;;;;;;;;;5035757;28;20029;-80
2020/12/03 03:55:06;;;;;;;4.68;3.20;;;;;;;;;;5035127;28;20252;-80
2020/12/03 03:57:32;;;;;;;5.60;3.47;;;;;;;;;;5034954;28;20476;-80
2020/12/03 03:59:58;;;;;;;6.95;3.60;;;;;;;;;;5033270;28;20077;-81
2020/12/03 04:02:25;;;;;;;3.90;2.40;;;;;;;;;;5035192;28;20476;-81
2020/12/03 04:04:52;;;;;;;4.30;2.70;;;;;;;;;;5034872;28;20052;-80
2020/12/03 04:07:19;;;;;;;5.47;2.67;;;;;;;;;;5034926;28;20036;-81
2020/12/03 04:09:46;;;;;;;3.60;2.63;;;;;;;;;;5034691;28;20432;-81
2020/12/03 04:12:12;;;;;;;2.67;2.45;;;;;;;;;;5034816;28;20095;-81
2020/12/03 04:14:38;;;;;;;3.60;2.05;;;;;;;;;;5034820;28;20105;-81
2020/12/03 04:17:04;;;;;;;6.28;2.50;;;;;;;;;;5034653;28;20547;-80
2020/12/03 04:19:30;;;;;;;4.13;2.38;;;;;;;;;;5034442;28;20018;-80
2020/12/03 04:21:56;;;;;;;4.15;2.60;;;;;;;;;;5034701;28;20439;-80
2020/12/03 04:24:22;;;;;;;3.70;2.35;;;;;;;;;;5034540;28;20026;-80
2020/12/03 04:26:48;;;;;;;4.60;2.63;;;;;;;;;;5034555;28;20033;-81
2020/12/03 04:29:14;;;;;;;2.95;1.75;;;;;;;;;;5034115;28;20026;-80
2020/12/03 04:31:44;;;;;;;4.55;2.80;;;;;;;;;;5033211;28;20032;-81
2020/12/03 04:34:10;;;;;;;3.03;2.38;;;;;;;;;;5034521;28;20477;-81
2020/12/03 04:36:36;;;;;;;4.10;3.00;;;;;;;;;;5032840;28;20033;-81
2020/12/03 04:39:04;;;;;;;4.63;2.40;;;;;;;;;;5034050;28;20032;-80
2020/12/03 04:41:30;;;;;;;4.35;2.47;;;;;;;;;;5034275;28;20056;-80
2020/12/03 04:43:59;;;;;;;2.47;2.10;;;;;;;;;;5034256;28;20479;-81
2020/12/03 04:46:33;;;;;;;3.40;2.20;;;;;;;;;;5034337;28;20036;-81
2020/12/03 04:49:23;;;;;;;2.83;2.15;;;;;;;;;;5034048;28;20029;-81
2020/12/03 04:51:58;;;;;;;3.35;2.10;;;;;;;;;;5034506;28;20472;-81
2020/12/03 04:54:43;;;;;;;2.22;1.85;;;;;;;;;;5032827;28;20022;-81
2020/12/03 04:57:17;;;;;;;3.55;2.40;;;;;;;;;;5033798;28;20033;-80
2020/12/03 05:00:06;;;;;;;2.85;2.20;;;;;;;;;;5032238;28;20045;-80
2020/12/03 05:03:01;;;;;;;3.08;2.05;;;;;;;;;;5032669;28;20057;-81
2020/12/03 05:06:00;;;;;;;4.38;2.60;;;;;;;;;;5011564;28;20030;-81
2020/12/03 05:08:58;;;;;;;3.03;2.25;;;;;;;;;;4990319;28;20130;-80
2020/12/03 05:11:30;;;;;;;4.57;2.55;;;;;;;;;;4990375;28;20037;-81
2020/12/03 05:14:04;;;;;;;3.50;2.63;;;;;;;;;;5033542;28;20026;-81
2020/12/03 05:16:39;;;;;;;4.07;2.30;;;;;;;;;;5032351;28;20036;-81
2020/12/03 05:19:17;;;;;;;4.97;3.10;;;;;;;;;;5033642;28;20029;-81
2020/12/03 05:21:44;;;;;;;3.50;2.30;;;;;;;;;;5033791;28;20034;-81
2020/12/03 05:24:09;;;;;;;;;;;;;;;;;;5034131;28;20033;-81
2020/12/03 05:26:36;;;;;;;5.15;2.97;;;;;;;;;;5033501;28;20317;-81
2020/12/03 05:29:04;;;;;;;4.22;2.80;;;;;;;;;;5033481;28;20034;-81
2020/12/03 05:31:39;;;;;;;3.22;2.55;;;;;;;;;;5033516;28;20171;-81
2020/12/03 05:34:08;;;;;;;3.53;2.65;;;;;;;;;;5033446;28;20026;-81
2020/12/03 05:36:36;;;;;;;2.88;2.38;;;;;;;;;;5033515;28;20037;-81
2020/12/03 05:39:05;;;;;;;3.67;3.03;;;;;;;;;;5032650;28;20048;-81
2020/12/03 05:41:33;;;;;;;2.30;2.05;;;;;;;;;;5033145;28;20017;-81
2020/12/03 05:43:59;;;;;;;5.45;3.30;;;;;;;;;;5033484;28;20026;-81
2020/12/03 05:46:26;;;;;;;5.10;3.05;;;;;;;;;;5033305;28;20030;-80
2020/12/03 05:48:56;;;;;;;4.60;3.38;;;;;;;;;;5032091;28;20087;-81
2020/12/03 05:51:26;;;;;;;5.25;3.33;;;;;;;;;;5033375;28;20021;-81
2020/12/03 05:53:53;;;;;;;4.13;2.83;;;;;;;;;;5033362;28;20030;-81
2020/12/03 05:56:21;;;;;;;4.97;2.88;;;;;;;;;;5033157;28;20041;-81
2020/12/03 05:58:47;;;;;;;5.95;3.42;;;;;;;;;;5033048;28;20109;-81
2020/12/03 06:01:25;;;;;;;5.07;3.45;;;;;;;;;;5033014;28;20397;-81
2020/12/03 06:04:06;;;;;;;2.55;2.00;;;;;;;;;;5033287;28;20444;-81
2020/12/03 06:06:51;;;;;;;4.28;3.20;;;;;;;;;;5033408;28;20025;-81
2020/12/03 06:09:20;;;;;;;2.80;2.30;;;;;;;;;;5033150;28;20108;-81
2020/12/03 06:11:55;;;;;;;14.65;7.03;;;;;;;;;;5033260;28;20475;-81
2020/12/03 06:14:36;;;;;;;9.90;5.53;;;;;;;;;;5032959;28;20032;-81
2020/12/03 06:17:21;;;;;;;9.15;4.90;;;;;;;;;;5033312;28;20037;-81
2020/12/03 06:19:52;;;;;;;6.75;4.00;;;;;;;;;;5032737;28;20556;-81
2020/12/03 06:22:26;;;;;;;6.82;4.18;;;;;;;;;;5033243;28;20018;-81
2020/12/03 06:25:02;;;;;;;4.93;2.72;;;;;;;;;;5031867;28;20154;-81
2020/12/03 06:27:31;;;;;;;3.50;2.55;;;;;;;;;;5031655;28;20029;-82
2020/12/03 06:30:03;;;;;;;3.53;2.60;;;;;;;;;;5031576;28;20540;-81
2020/12/03 06:32:45;;;;;;;5.55;3.22;;;;;;;;;;5032889;28;20384;-80
2020/12/03 06:35:23;;;;;;;4.38;3.17;;;;;;;;;;5033089;28;20029;-81
2020/12/03 06:37:52;;;;;;;3.92;3.28;;;;;;;;;;5032624;28;20480;-80
2020/12/03 06:40:24;;;;;;;3.75;2.70;;;;;;;;;;5032796;28;20024;-80
2020/12/03 06:42:50;;;;;;;3.78;2.95;;;;;;;;;;5031586;28;20074;-81
2020/12/03 06:45:34;;;;;;;4.63;2.72;;;;;;;;;;5031730;28;20116;-81
2020/12/03 06:48:06;;;;;;;4.93;3.47;;;;;;;;;;5032828;28;20018;-81
2020/12/03 06:50:47;;;;;;;4.07;2.78;;;;;;;;;;5033285;28;20022;-83
2020/12/03 06:53:13;;;;;;;4.43;3.17;;;;;;;;;;5036333;28;20484;-81
2020/12/03 06:55:39;;;;;;;7.82;4.25;;;;;;;;;;5036422;28;20103;-81
2020/12/03 06:58:18;;;;;;;6.53;2.97;;;;;;;;;;5033612;28;20048;-82
2020/12/03 07:00:59;;;;;;;4.32;3.60;;;;;;;;;;5024845;28;20050;-82
2020/12/03 07:03:45;;;;;;;4.70;3.13;;;;;;;;;;5029629;28;20503;-80
2020/12/03 07:06:29;;;;;;;5.10;3.10;;;;;;;;;;5019449;28;20029;-82
2020/12/03 07:09:14;;;;;;;3.97;3.33;;;;;;;;;;5023427;28;20026;-80
2020/12/03 07:11:40;;;;;;;4.40;3.05;;;;;;;;;;5021697;28;20445;-80
2020/12/03 07:14:25;;;;;;;5.30;3.22;;;;;;;;;;5023902;28;20465;-79
2020/12/03 07:17:09;;;;;;;5.25;3.45;;;;;;;;;;5025503;28;20036;-84
2020/12/03 07:19:37;;;;;;;5.15;3.17;;;;;;;;;;5020232;28;20506;-80
2020/12/03 07:22:23;;;;;;;5.07;3.30;;;;;;;;;;5026105;28;20018;-81
2020/12/03 07:24:50;;;;;;;5.03;3.03;;;;;;;;;;5023646;28;20029;-81
2020/12/03 07:27:35;;;;;;;6.40;3.85;;;;;;;;;;5024004;28;20027;-81
2020/12/03 07:30:01;;;;;;;4.95;3.30;;;;;;;;;;5024163;28;20026;-81
2020/12/03 07:32:51;;;;;;;5.22;3.47;;;;;;;;;;5025043;28;20112;-79
2020/12/03 07:35:30;;;;;;;5.78;3.85;;;;;;;;;;5025468;28;20031;-79
2020/12/03 07:38:15;;;;;;;5.97;3.10;;;;;;;;;;5015857;28;20452;-81
2020/12/03 07:40:41;;;;;;;6.63;3.80;;;;;;;;;;5023381;28;20021;-80
2020/12/03 07:43:17;;;;;;;5.07;3.60;;;;;;;;;;5024943;28;20037;-81
2020/12/03 07:45:44;;;;;;;4.47;2.80;;;;;;;;;;5024309;28;20025;-81
2020/12/03 07:48:22;;;;;;;4.22;3.10;;;;;;;;;;5025276;28;20029;-81
2020/12/03 07:50:50;;;;;;;3.92;3.13;;;;;;;;;;5017355;28;20045;-89
2020/12/03 07:53:16;;;;;;;5.40;3.38;;;;;;;;;;5017002;28;20080;-89
2020/12/03 07:55:43;;;;;;;6.00;4.10;;;;;;;;;;5029602;28;20041;-82
2020/12/03 07:58:27;;;;;;;4.47;3.67;;;;;;;;;;5022358;28;20034;-80
2020/12/03 08:00:53;;;;;;;4.25;3.30;;;;;;;;;;5032766;28;20046;-80
2020/12/03 08:03:38;;;;;;;6.60;4.20;;;;;;;;;;5027466;28;20033;-78
2020/12/03 08:06:10;;;;;;;8.05;4.72;;;;;;;;;;5027369;28;20472;-80
2020/12/03 08:08:37;;;;;;;8.25;4.72;;;;;;;;;;5022074;28;20021;-80
2020/12/03 08:11:04;;;;;;;10.63;5.75;;;;;;;;;;5020901;28;20104;-80
2020/12/03 08:13:30;;;;;;;;;;;;;;;;;;5030202;28;20030;-80
2020/12/03 08:16:04;;;;;;;7.50;4.72;;;;;;;;;;5017555;28;19955;-80
2020/12/03 08:18:34;;;;;;;7.32;3.53;;;;;;;;;;5025252;28;20053;-80
2020/12/03 08:21:00;;;;;;;4.65;3.47;;;;;;;;;;5025955;28;20036;-81
2020/12/03 08:23:26;;;;;;;7.57;3.55;;;;;;;;;;5017337;28;20030;-80
2020/12/03 08:25:52;;;;;;;7.47;3.55;;;;;;;;;;5028864;28;20507;-82
2020/12/03 08:28:20;;;;;;;6.32;4.72;;;;;;;;;;5020250;28;20480;-85
2020/12/03 08:30:53;;;;;;;5.15;3.75;;;;;;;;;;5021685;28;20037;-85
2020/12/03 08:33:35;;;;;;;4.93;3.22;;;;;;;;;;5027071;28;20030;-80
2020/12/03 08:36:06;;;;;;;8.05;4.88;;;;;;;;;;5015499;28;20021;-80
2020/12/03 08:38:37;;;;;;;6.03;3.83;;;;;;;;;;5025095;28;20038;-80
2020/12/03 08:41:06;;;;;;;4.57;2.92;;;;;;;;;;5021888;28;20054;-79
2020/12/03 08:43:38;;;;;;;4.03;2.80;;;;;;;;;;5028931;28;20026;-80
2020/12/03 08:46:09;;;;;;;4.00;2.60;;;;;;;;;;5018393;28;20128;-80
2020/12/03 08:48:38;;;;;;;4.93;2.63;;;;;;;;;;5029072;28;20013;-79
2020/12/03 08:51:12;;;;;;;5.53;3.22;;;;;;;;;;5029368;28;20022;-79
2020/12/03 08:53:39;;;;;;;4.85;2.95;;;;;;;;;;5031565;28;20392;-80
2020/12/03 08:56:25;;;;;;;8.10;3.28;;;;;;;;;;5026720;28;20014;-80
2020/12/03 08:59:04;;;;;;;6.30;3.92;;;;;;;;;;5023474;28;20104;-80
2020/12/03 09:01:36;;;;;;;4.57;3.60;;;;;;;;;;5014900;28;20042;-80
2020/12/03 09:04:02;;;;;;;6.15;3.47;;;;;;;;;;5028256;28;20026;-80
2020/12/03 09:06:30;;;;;;;5.35;3.45;;;;;;;;;;5020809;28;20380;-80
2020/12/03 09:08:56;;;;;;;6.45;3.50;;;;;;;;;;5027928;28;20599;-80
2020/12/03 09:11:23;;;;;;;3.55;2.60;;;;;;;;;;5033465;28;20096;-80
2020/12/03 09:13:53;;;;;;;4.10;2.90;;;;;;;;;;5019579;28;20111;-80
2020/12/03 09:16:20;;;;;;;6.55;3.65;;;;;;;;;;5023081;28;20026;-79
2020/12/03 09:18:46;;;;;;;4.32;2.95;;;;;;;;;;5022180;28;20021;-79
2020/12/03 09:21:12;;;;;;;4.25;3.25;;;;;;;;;;5023304;28;20072;-79
2020/12/03 09:23:38;;;;;;;;;;;;;;;;;;5022149;28;20030;-80
2020/12/03 09:26:19;;;;;;;6.07;3.40;;;;;;;;;;5021620;28;19929;-80
2020/12/03 09:28:47;;;;;;;6.00;2.90;;;;;;;;;;5022402;28;20021;-79
2020/12/03 09:31:14;;;;;;;6.53;3.75;;;;;;;;;;5023158;28;20072;-80
2020/12/03 09:33:44;;;;;;;5.60;3.75;;;;;;;;;;5020968;28;20489;-79
2020/12/03 09:36:11;;;;;;;5.35;3.45;;;;;;;;;;5021732;28;20413;-79
2020/12/03 09:38:38;;;;;;;6.30;3.85;;;;;;;;;;5021388;28;20033;-80
2020/12/03 09:41:03;;;;;;;;;;;;;;;;;;5022709;28;20045;-79
2020/12/03 09:43:30;;;;;;;9.40;4.25;;;;;;;;;;5021220;28;19952;-78
2020/12/03 09:45:58;;;;;;;8.15;5.05;;;;;;;;;;5020209;28;20117;-79
2020/12/03 09:48:29;;;;;;;10.18;5.40;;;;;;;;;;5022813;28;20022;-80
2020/12/03 09:50:55;;;;;;;7.43;4.38;;;;;;;;;;5017325;28;20026;-79
2020/12/03 09:53:22;;;;;;;7.95;3.83;;;;;;;;;;5027793;28;20427;-80
2020/12/03 09:55:48;;;;;;;7.30;5.13;;;;;;;;;;5032373;28;20047;-80
2020/12/03 09:58:21;;;;;;;7.88;4.60;;;;;;;;;;5030605;28;20388;-80
2020/12/03 10:00:48;;;;;;;6.05;4.15;;;;;;;;;;5026016;28;20116;-79
2020/12/03 10:03:32;;;;;;;7.82;4.53;;;;;;;;;;5024747;28;20062;-82
2020/12/03 10:06:04;;;;;;;6.60;4.32;;;;;;;;;;5014889;28;20024;-79
2020/12/03 10:08:33;;;;;;;7.68;4.13;;;;;;;;;;5024111;28;20033;-80
2020/12/03 10:10:59;;;;;;;9.85;4.25;;;;;;;;;;5019104;28;20026;-81
2020/12/03 10:13:32;;;;;;;7.80;5.22;;;;;;;;;;5024160;28;20025;-83
2020/12/03 10:16:03;;;;;;;17.23;8.30;;;;;;;;;;5024967;28;20083;-81
2020/12/03 10:18:49;;;;;;;12.93;6.80;;;;;;;;;;5023199;28;20030;-82
2020/12/03 10:21:20;;;;;;;9.43;5.10;;;;;;;;;;5017569;28;20101;-82
2020/12/03 10:23:49;;;;;;;7.22;5.18;;;;;;;;;;5022719;28;20049;-82
2020/12/03 10:26:24;;;;;;;9.38;4.63;;;;;;;;;;5018587;28;20026;-82
2020/12/03 10:28:52;;;;;;;6.55;4.57;;;;;;;;;;5022168;28;20036;-81
2020/12/03 10:31:20;;;;;;;13.70;8.43;;;;;;;;;;5026129;28;20369;-79
2020/12/03 10:33:51;;;;;;;15.15;9.27;;;;;;;;;;5026002;28;20030;-86
2020/12/03 10:36:39;;;;;;;12.15;7.82;;;;;;;;;;5029145;28;20061;-80
2020/12/03 10:39:06;;;;;;;10.20;6.25;;;;;;;;;;5025564;28;20021;-79
2020/12/03 10:41:34;;;;;;;6.63;4.85;;;;;;;;;;5021622;28;20040;-80
2020/12/03 10:44:02;;;;;;;9.20;5.63;;;;;;;;;;5031083;28;20033;-81
2020/12/03 10:46:31;;;;;;;9.98;5.90;;;;;;;;;;5023699;28;20021;-80
2020/12/03 10:48:59;;;;;;;9.05;4.63;;;;;;;;;;5025754;28;20091;-78
2020/12/03 10:51:25;;;;;;;6.80;4.75;;;;;;;;;;5030853;28;20026;-81
2020/12/03 10:53:53;;;;;;;;;;;;;;;;;;5019187;28;20032;-80
2020/12/03 10:56:26;;;;;;;7.53;4.10;;;;;;;;;;5027886;28;19913;-80
2020/12/03 10:59:08;;;;;;;7.07;4.38;;;;;;;;;;5025316;28;20045;-80
2020/12/03 11:01:34;;;;;;;8.23;4.57;;;;;;;;;;5018457;28;20061;-79
2020/12/03 11:04:05;;;;;;;7.38;4.25;;;;;;;;;;5023622;28;20457;-79
2020/12/03 11:06:32;;;;;;;12.25;4.18;;;;;;;;;;5026749;28;20034;-79
2020/12/03 11:08:59;;;;;;;7.80;4.97;;;;;;;;;;5024305;28;20088;-78
2020/12/03 11:11:32;;;;;;;7.38;4.15;;;;;;;;;;5023666;28;20025;-79
2020/12/03 11:13:58;;;;;;;9.63;4.50;;;;;;;;;;5022962;28;20396;-79
2020/12/03 11:16:26;;;;;;;9.00;4.70;;;;;;;;;;5025339;28;20025;-79
2020/12/03 11:18:54;;;;;;;8.98;4.13;;;;;;;;;;5023405;28;20040;-79
2020/12/03 11:21:23;;;;;;;10.02;6.43;;;;;;;;;;5030712;28;20391;-78
2020/12/03 11:24:04;;;;;;;11.75;5.80;;;;;;;;;;5025927;28;20567;-78
2020/12/03 11:26:33;;;;;;;8.55;5.82;;;;;;;;;;5025196;28;20017;-79
2020/12/03 11:29:14;;;;;;;8.63;5.68;;;;;;;;;;5024042;28;20022;-79
2020/12/03 11:31:41;;;;;;;5.47;4.32;;;;;;;;;;5022254;28;20030;-80
2020/12/03 11:34:07;;;;;;;9.25;4.53;;;;;;;;;;5023473;28;20388;-78
2020/12/03 11:36:33;;;;;;;;;;;;;;;;;;5026466;28;20051;-79
2020/12/03 11:39:01;;;;;;;8.32;4.45;;;;;;;;;;5021481;28;19999;-79
2020/12/03 11:41:40;;;;;;;11.13;5.53;;;;;;;;;;5023867;28;20100;-79
2020/12/03 11:49:29;;;;;;;10.95;5.03;;;;;;;;;;5033947;28;20116;-80
2020/12/03 11:51:55;;;;;;;10.55;5.88;;;;;;;;;;5017968;28;20025;-80
2020/12/03 11:54:28;;;;;;;12.70;5.68;;;;;;;;;;5027080;28;20026;-79
2020/12/03 11:56:59;;;;;;;8.30;5.50;;;;;;;;;;5021156;28;20041;-78
2020/12/03 11:59:32;;;;;;;7.60;4.80;;;;;;;;;;5027018;28;20372;-80
2020/12/03 12:02:02;;;;;;;12.32;5.97;;;;;;;;;;5020963;28;20059;-78
2020/12/03 12:04:43;;;;;;;8.55;6.47;;;;;;;;;;5022951;28;20014;-79
2020/12/03 12:09:50;;;;;;;11.75;5.72;;;;;;;;;;5025897;28;20022;-79
2020/12/03 12:12:18;;;;;;;7.40;5.05;;;;;;;;;;5025964;28;20018;-79
2020/12/03 12:14:44;;;;;;;9.65;5.38;;;;;;;;;;5028490;28;20021;-80
2020/12/03 12:17:13;;;;;;;10.25;6.50;;;;;;;;;;5019956;28;20041;-79
2020/12/03 12:19:41;;;;;;;8.52;5.30;;;;;;;;;;5027909;28;20116;-78
2020/12/03 12:22:09;;;;;;;9.52;6.25;;;;;;;;;;5024017;28;20392;-81
2020/12/03 12:24:36;;;;;;;10.95;6.25;;;;;;;;;;5022684;28;20505;-80
2020/12/03 12:27:02;;;;;;;8.73;6.53;;;;;;;;;;5025998;28;20072;-79
2020/12/03 12:29:29;;;;;;;10.63;6.50;;;;;;;;;;5020165;28;20093;-79
2020/12/03 12:31:56;;;;;;;11.48;5.95;;;;;;;;;;5017230;28;20025;-80
2020/12/03 12:34:23;;;;;;;9.93;5.38;;;;;;;;;;5024740;28;20113;-80
2020/12/03 12:36:49;;;;;;;10.27;5.63;;;;;;;;;;5024580;28;20130;-80
2020/12/03 12:39:15;;;;;;;10.18;5.53;;;;;;;;;;5018208;28;20033;-80
2020/12/03 12:41:56;;;;;;;10.27;5.72;;;;;;;;;;5029831;28;20494;-80
2020/12/03 12:44:22;;;;;;;8.57;4.88;;;;;;;;;;5019369;28;20127;-80
2020/12/03 12:46:48;;;;;;;8.15;4.65;;;;;;;;;;5028115;28;20049;-79
2020/12/03 12:49:14;;;;;;;11.30;5.20;;;;;;;;;;5024429;28;20064;-79
2020/12/03 12:51:40;;;;;;;11.50;5.57;;;;;;;;;;5016552;28;20736;-80
2020/12/03 12:54:06;;;;;;;8.90;5.38;;;;;;;;;;5023879;28;20030;-80
2020/12/03 12:56:32;;;;;;;8.75;4.85;;;;;;;;;;5018326;28;20135;-80
2020/12/03 12:58:58;;;;;;;19.77;10.32;;;;;;;;;;5017250;28;20033;-80
2020/12/03 13:01:24;;;;;;;18.27;10.05;;;;;;;;;;5025169;28;20811;-80
2020/12/03 13:03:50;;;;;;;12.63;7.82;;;;;;;;;;5013040;28;20029;-80
2020/12/03 13:06:16;;;;;;;12.93;6.88;;;;;;;;;;5023188;28;20072;-80
2020/12/03 13:08:42;;;;;;;15.23;7.30;;;;;;;;;;5020090;28;20034;-80
2020/12/03 13:11:08;;;;;;;10.75;6.45;;;;;;;;;;5014611;28;20116;-80
2020/12/03 13:13:35;;;;;;;14.75;6.13;;;;;;;;;;5026845;28;20033;-81
2020/12/03 13:16:02;;;;;;;;;;;;;;;;;;5013689;28;20025;-80
2020/12/03 13:18:28;;;;;;;;;;;;;;;;;;5017273;28;19920;-80
2020/12/03 13:20:55;;;;;;;9.70;5.57;;;;;;;;;;5017228;28;19925;-79
2020/12/03 13:23:21;;;;;;;11.25;6.50;;;;;;;;;;5024779;28;20548;-78
2020/12/03 13:25:47;;;;;;;10.43;6.05;;;;;;;;;;5012491;28;20052;-80
2020/12/03 13:28:14;;;;;;;10.77;6.00;;;;;;;;;;5022819;28;20085;-79
2020/12/03 13:30:39;;;;;;;8.52;5.15;;;;;;;;;;5017417;28;20021;-78
2020/12/03 13:33:06;;;;;;;9.27;4.80;;;;;;;;;;5015559;28;20044;-80
2020/12/03 13:35:32;;;;;;;8.38;5.35;;;;;;;;;;5025399;28;20021;-80
2020/12/03 13:37:58;;;;;;;11.50;7.05;;;;;;;;;;5012670;28;20029;-79
2020/12/03 13:40:24;;;;;;;26.63;11.95;;;;;;;;;;5020837;28;20018;-79
2020/12/03 13:42:50;;;;;;;18.42;9.00;;;;;;;;;;5020097;28;20033;-79
2020/12/03 13:45:16;;;;;;;14.55;6.90;;;;;;;;;;5014211;28;20022;-80
2020/12/03 13:47:42;;;;;;;10.98;5.57;;;;;;;;;;5024880;28;20116;-79
2020/12/03 13:50:08;;;;;;;10.77;6.93;;;;;;;;;;5013281;28;20026;-79
2020/12/03 13:52:34;;;;;;;11.10;6.72;;;;;;;;;;5020022;28;20108;-80
2020/12/03 13:55:01;;;;;;;11.00;6.57;;;;;;;;;;5012715;28;20021;-79
2020/12/03 13:57:27;;;;;;;11.52;5.68;;;;;;;;;;5011987;28;20132;-80
2020/12/03 13:59:53;;;;;;;19.45;9.45;;;;;;;;;;5024965;28;20034;-80
2020/12/03 14:02:20;;;;;;;9.80;6.07;;;;;;;;;;5022044;28;20083;-79
2020/12/03 14:04:46;;;;;;;10.38;6.00;;;;;;;;;;5022141;28;20136;-79
2020/12/03 14:07:12;;;;;;;11.27;6.10;;;;;;;;;;5016973;28;20037;-79
2020/12/03 14:09:38;;;;;;;8.82;5.88;;;;;;;;;;5026940;28;20432;-80
2020/12/03 14:12:04;;;;;;;21.25;9.90;;;;;;;;;;5023183;28;20065;-80
2020/12/03 14:14:30;;;;;;;13.30;7.45;;;;;;;;;;5026093;28;20022;-80
2020/12/03 14:16:56;;;;;;;13.85;7.38;;;;;;;;;;5023934;28;20071;-81
2020/12/03 14:19:22;;;;;;;10.95;5.55;;;;;;;;;;5027031;28;20045;-79
2020/12/03 14:21:49;;;;;;;11.13;5.90;;;;;;;;;;5026635;28;20037;-87
2020/12/03 14:24:15;;;;;;;13.23;6.75;;;;;;;;;;5028177;28;20081;-88
2020/12/03 14:26:41;;;;;;;9.07;5.38;;;;;;;;;;5028626;28;20025;-87
2020/12/03 14:29:07;;;;;;;13.07;7.05;;;;;;;;;;5028172;28;20387;-88
2020/12/03 14:31:33;;;;;;;13.00;6.32;;;;;;;;;;5025202;28;20112;-86
2020/12/03 14:33:59;;;;;;;8.82;5.65;;;;;;;;;;5024573;28;20402;-87
2020/12/03 14:36:25;;;;;;;11.55;6.22;;;;;;;;;;5026354;28;20120;-81
2020/12/03 14:38:51;;;;;;;12.23;7.30;;;;;;;;;;5023223;28;20030;-81
2020/12/03 14:41:17;;;;;;;12.00;6.78;;;;;;;;;;5026343;28;20021;-81
2020/12/03 14:43:43;;;;;;;12.88;7.50;;;;;;;;;;5024535;28;20058;-79
2020/12/03 14:46:09;;;;;;;15.40;8.27;;;;;;;;;;5025939;28;20018;-80
2020/12/03 14:48:35;;;;;;;;;;;;;;;;;;5026929;28;20344;-82
2020/12/03 14:51:03;;;;;;;14.30;7.20;;;;;;;;;;5025227;28;19905;-81
2020/12/03 14:53:29;;;;;;;14.02;6.90;;;;;;;;;;5024402;28;20022;-80
2020/12/03 14:55:58;;;;;;;12.23;6.32;;;;;;;;;;5024383;28;20053;-80
2020/12/03 14:58:27;;;;;;;14.57;7.03;;;;;;;;;;5026799;28;20041;-79
2020/12/03 15:00:53;;;;;;;14.82;7.70;;;;;;;;;;5023466;28;20042;-79
2020/12/03 15:03:19;;;;;;;9.68;6.43;;;;;;;;;;5025984;28;20018;-80